Time;durP1;ratioP1;P1;durP2;ratioP2;P2;SDS_P1;SDS_P2;PMS_P1;PMS_P2;Temp;Humidity;BMP_temperature;BMP_pressure;BME280_temperature;BME280_humidity;BME280_pressure;Samples;Min_cycle;Max_cycle;Signal;HPM_P1;HPM_P2
2021/04/19 00:02:00;;;;;;;5.95;3.25;;;26.10;73.20;;;;;;5078623;28;20388;-79
2021/04/19 00:04:27;;;;;;;6.57;2.72;;;26.30;72.60;;;;;;5089112;28;20441;-78
2021/04/19 00:06:54;;;;;;;9.17;3.27;;;26.40;68.60;;;;;;5084152;28;20382;-78
2021/04/19 00:09:21;;;;;;;8.20;3.33;;;25.40;69.60;;;;;;5087646;28;20404;-78
2021/04/19 00:11:49;;;;;;;5.82;2.97;;;23.90;76.50;;;;;;5080206;28;20411;-78
2021/04/19 00:14:16;;;;;;;7.97;3.30;;;22.20;80.90;;;;;;5083618;28;20388;-77
2021/04/19 00:16:43;;;;;;;6.47;3.30;;;21.60;81.50;;;;;;5071772;28;20434;-78
2021/04/19 00:19:10;;;;;;;7.65;3.33;;;21.10;82.40;;;;;;5085769;28;20438;-78
2021/04/19 00:21:37;;;;;;;8.43;3.20;;;20.80;82.90;;;;;;5093447;28;20396;-77
2021/04/19 00:24:05;;;;;;;8.33;3.30;;;20.90;84.60;;;;;;5091724;28;21519;-78
2021/04/19 00:26:32;;;;;;;7.85;3.35;;;21.40;84.70;;;;;;5086749;28;20898;-78
2021/04/19 00:28:59;;;;;;;7.72;3.35;;;22.00;79.80;;;;;;5072372;28;20394;-78
2021/04/19 00:31:26;;;;;;;7.03;3.58;;;22.10;78.70;;;;;;5090076;28;20415;-78
2021/04/19 00:33:53;;;;;;;6.60;2.95;;;22.50;80.30;;;;;;5081929;28;20768;-78
2021/04/19 00:36:19;;;;;;;8.07;2.97;;;22.70;78.30;;;;;;5088587;28;20385;-78
2021/04/19 00:38:46;;;;;;;8.90;3.17;;;23.00;77.30;;;;;;5090577;28;20438;-78
2021/04/19 00:41:14;;;;;;;6.03;2.85;;;23.20;78.90;;;;;;5090911;28;20384;-78
2021/04/19 00:43:41;;;;;;;6.38;3.20;;;23.50;78.00;;;;;;5089611;28;20437;-78
2021/04/19 00:46:09;;;;;;;5.33;2.77;;;23.90;76.40;;;;;;5090840;28;20388;-78
2021/04/19 00:48:37;;;;;;;5.83;3.03;;;24.00;75.70;;;;;;5080705;28;20461;-79
2021/04/19 00:51:05;;;;;;;6.82;3.50;;;24.10;75.70;;;;;;5077091;28;20419;-78
2021/04/19 00:53:34;;;;;;;9.95;3.65;;;24.20;73.40;;;;;;5090866;28;20387;-77
2021/04/19 00:56:02;;;;;;;6.38;3.03;;;24.00;74.60;;;;;;5091015;28;20498;-78
2021/04/19 00:58:33;;;;;;;8.32;3.63;;;23.60;74.50;;;;;;5088823;28;20400;-79
2021/04/19 01:01:00;;;;;;;9.52;3.35;;;23.30;75.80;;;;;;5090126;28;20380;-78
2021/04/19 01:03:27;;;;;;;6.60;3.00;;;22.70;75.60;;;;;;5082087;28;20487;-78
2021/04/19 01:05:54;;;;;;;10.23;3.13;;;22.00;78.30;;;;;;5083287;28;20407;-78
2021/04/19 01:08:21;;;;;;;7.10;3.58;;;21.40;81.90;;;;;;5076458;28;20401;-78
2021/04/19 01:10:48;;;;;;;6.30;3.08;;;20.90;84.10;;;;;;5085311;28;20399;-78
2021/04/19 01:13:15;;;;;;;4.75;2.80;;;20.40;84.80;;;;;;5089346;28;20392;-78
2021/04/19 01:15:42;;;;;;;6.85;3.10;;;20.30;83.80;;;;;;5081277;28;20401;-78
2021/04/19 01:18:09;;;;;;;5.55;3.10;;;20.00;84.60;;;;;;5082721;28;20390;-77
2021/04/19 01:20:44;;;;;;;7.45;3.38;;;19.80;86.20;;;;;;5087874;28;20896;-79
2021/04/19 01:23:12;;;;;;;6.45;3.03;;;19.70;85.30;;;;;;5090333;28;20373;-79
2021/04/19 01:25:39;;;;;;;6.30;3.25;;;19.50;85.00;;;;;;5090029;28;20466;-79
2021/04/19 01:28:07;;;;;;;7.95;3.40;;;19.30;86.20;;;;;;5090601;28;20433;-79
2021/04/19 01:30:45;;;;;;;7.40;3.10;;;19.20;85.50;;;;;;5090020;28;20518;-79
2021/04/19 01:33:13;;;;;;;3.53;2.70;;;19.20;86.90;;;;;;5090343;28;20430;-80
2021/04/19 01:35:40;;;;;;;6.97;3.15;;;19.30;86.50;;;;;;5089282;28;20387;-79
2021/04/19 01:38:09;;;;;;;9.52;3.20;;;19.40;85.10;;;;;;5090229;28;20386;-79
2021/04/19 01:40:36;;;;;;;8.40;3.05;;;19.50;85.50;;;;;;5090079;28;20439;-79
2021/04/19 01:43:04;;;;;;;7.03;3.10;;;19.50;86.00;;;;;;5087855;28;20803;-77
2021/04/19 01:45:32;;;;;;;7.30;3.10;;;19.60;86.70;;;;;;5090473;28;20441;-78
2021/04/19 01:47:59;;;;;;;6.90;3.10;;;19.70;87.00;;;;;;5089571;28;20400;-78
2021/04/19 01:50:29;;;;;;;6.95;2.83;;;19.70;86.10;;;;;;5089656;28;20403;-78
2021/04/19 01:52:59;;;;;;;7.15;3.10;;;19.70;84.70;;;;;;5089318;28;20380;-78
2021/04/19 01:55:31;;;;;;;6.40;2.67;;;19.70;84.80;;;;;;5087901;28;20372;-79
2021/04/19 01:58:10;;;;;;;6.47;2.55;;;19.80;86.00;;;;;;5089437;28;20453;-79
2021/04/19 02:00:41;;;;;;;10.70;3.00;;;19.80;86.20;;;;;;5084420;28;20462;-79
2021/04/19 02:03:26;;;;;;;6.25;3.30;;;19.80;87.10;;;;;;5085737;28;20416;-79
2021/04/19 02:06:03;;;;;;;6.90;2.88;;;19.80;82.50;;;;;;5073348;28;20493;-79
2021/04/19 02:08:42;;;;;;;6.72;2.83;;;19.80;81.90;;;;;;5069960;28;20492;-79
2021/04/19 02:11:09;;;;;;;5.10;3.00;;;19.80;82.20;;;;;;5070850;28;20931;-79
2021/04/19 02:13:54;;;;;;;4.25;2.78;;;19.90;79.70;;;;;;5075715;28;20428;-79
2021/04/19 02:16:34;;;;;;;6.07;2.42;;;19.90;79.50;;;;;;5079899;28;20495;-80
2021/04/19 02:19:17;;;;;;;4.07;2.43;;;20.00;81.40;;;;;;5080163;28;20539;-80
2021/04/19 02:21:59;;;;;;;5.95;2.58;;;20.10;80.60;;;;;;5070398;28;20417;-80
2021/04/19 02:24:29;;;;;;;6.57;2.70;;;20.20;79.80;;;;;;5087208;28;20381;-79
2021/04/19 02:27:04;;;;;;;6.57;2.53;;;20.10;79.90;;;;;;5090361;28;20417;-79
2021/04/19 02:29:35;;;;;;;6.77;2.87;;;20.20;79.20;;;;;;5087018;28;20377;-78
2021/04/19 02:32:08;;;;;;;4.68;2.53;;;20.20;81.60;;;;;;5085154;28;20393;-79
2021/04/19 02:34:36;;;;;;;7.38;2.88;;;20.20;80.10;;;;;;5085159;28;20404;-79
2021/04/19 02:37:04;;;;;;;4.45;2.50;;;20.30;80.40;;;;;;5075892;28;20381;-79
2021/04/19 02:39:35;;;;;;;5.75;2.40;;;20.40;79.20;;;;;;5091187;28;20393;-79
2021/04/19 02:42:02;;;;;;;6.05;2.25;;;20.50;78.70;;;;;;5091357;28;20436;-78
2021/04/19 02:44:31;;;;;;;3.20;2.35;;;20.50;79.40;;;;;;5090001;28;20479;-78
2021/04/19 02:46:59;;;;;;;4.05;2.20;;;20.50;77.80;;;;;;5090470;28;20393;-79
2021/04/19 02:49:31;;;;;;;5.65;2.30;;;20.50;78.20;;;;;;5085755;28;20399;-79
2021/04/19 02:52:03;;;;;;;4.53;1.90;;;20.60;76.80;;;;;;5085017;28;20922;-78
2021/04/19 02:54:32;;;;;;;4.55;1.98;;;20.70;76.60;;;;;;5075107;28;20386;-78
2021/04/19 02:57:00;;;;;;;5.50;2.10;;;20.70;76.60;;;;;;5071700;28;20481;-78
2021/04/19 02:59:29;;;;;;;4.00;2.05;;;20.70;75.80;;;;;;5071970;28;20398;-78
2021/04/19 03:02:06;;;;;;;5.38;2.30;;;20.70;74.90;;;;;;5084050;28;20895;-79
2021/04/19 03:04:38;;;;;;;4.43;2.10;;;20.70;77.50;;;;;;5088223;28;20480;-79
2021/04/19 03:07:09;;;;;;;6.20;2.00;;;20.80;77.60;;;;;;5076006;28;20390;-78
2021/04/19 03:09:49;;;;;;;5.30;2.20;;;20.90;75.20;;;;;;5080932;28;20432;-77
2021/04/19 03:12:20;;;;;;;5.15;2.10;;;21.00;74.90;;;;;;5080771;28;20397;-78
2021/04/19 03:14:54;;;;;;;7.05;2.05;;;21.00;73.40;;;;;;5083731;28;20398;-78
2021/04/19 03:17:24;;;;;;;5.40;2.20;;;21.00;74.30;;;;;;5089053;28;20400;-78
2021/04/19 03:20:17;;;;;;;4.75;1.90;;;21.00;73.90;;;;;;5070790;28;20414;-78
2021/04/19 03:22:48;;;;;;;5.88;2.15;;;21.10;71.40;;;;;;5075896;28;20407;-78
2021/04/19 03:25:16;;;;;;;4.10;1.92;;;21.10;71.20;;;;;;5086474;28;20381;-79
2021/04/19 03:27:46;;;;;;;5.07;1.95;;;21.20;70.70;;;;;;5073306;28;20384;-79
2021/04/19 03:30:14;;;;;;;3.38;2.17;;;21.20;70.10;;;;;;5082485;28;20536;-79
2021/04/19 03:33:03;;;;;;;3.10;1.95;;;21.10;70.10;;;;;;5068597;28;20373;-78
2021/04/19 03:35:34;;;;;;;4.10;2.00;;;21.10;70.50;;;;;;5068606;28;20904;-78
2021/04/19 03:38:03;;;;;;;3.25;2.08;;;21.10;71.20;;;;;;5076726;28;20396;-79
2021/04/19 03:40:33;;;;;;;2.65;1.88;;;21.10;70.70;;;;;;5088461;28;20399;-79
2021/04/19 03:43:07;;;;;;;6.45;2.13;;;21.10;74.20;;;;;;5075785;28;20383;-79
2021/04/19 03:45:37;;;;;;;2.50;1.90;;;21.10;72.30;;;;;;5088449;28;20376;-78
2021/04/19 03:48:10;;;;;;;7.00;1.90;;;21.10;72.10;;;;;;5088496;28;21389;-78
2021/04/19 03:50:45;;;;;;;2.75;1.73;;;21.10;71.30;;;;;;5088178;28;20400;-78
2021/04/19 03:53:15;;;;;;;4.82;2.20;;;21.10;71.20;;;;;;5087186;28;20470;-78
2021/04/19 03:55:45;;;;;;;3.60;2.10;;;21.10;72.00;;;;;;5080397;28;20483;-78
2021/04/19 03:58:14;;;;;;;4.75;2.03;;;21.10;72.40;;;;;;5091900;28;20728;-77
2021/04/19 04:00:46;;;;;;;5.22;2.13;;;21.10;69.60;;;;;;5074363;28;20776;-78
2021/04/19 04:03:14;;;;;;;3.30;2.00;;;21.00;71.90;;;;;;5072026;28;20398;-79
2021/04/19 04:05:41;;;;;;;4.20;1.58;;;21.10;72.80;;;;;;5072073;28;20378;-78
2021/04/19 04:08:08;;;;;;;4.75;2.17;;;21.10;69.40;;;;;;5085424;28;20874;-78
2021/04/19 04:10:36;;;;;;;3.55;1.73;;;21.10;68.60;;;;;;5079817;28;20392;-78
2021/04/19 04:13:03;;;;;;;3.72;1.88;;;21.10;69.80;;;;;;5078122;28;20535;-78
2021/04/19 04:15:30;;;;;;;6.93;2.00;;;21.10;70.00;;;;;;5086558;28;20392;-78
2021/04/19 04:17:57;;;;;;;4.80;1.90;;;21.20;69.80;;;;;;5081370;28;20382;-79
2021/04/19 04:20:24;;;;;;;6.30;2.20;;;21.20;70.40;;;;;;5078053;28;20551;-78
2021/04/19 04:22:51;;;;;;;4.82;1.75;;;21.10;70.60;;;;;;5082512;28;20732;-79
2021/04/19 04:25:18;;;;;;;3.67;1.73;;;21.10;70.20;;;;;;5086726;28;20391;-78
2021/04/19 04:27:45;;;;;;;6.82;2.00;;;21.10;71.50;;;;;;5089960;28;20373;-78
2021/04/19 04:30:13;;;;;;;3.28;1.60;;;21.10;69.30;;;;;;5086279;28;20396;-79
2021/04/19 04:32:40;;;;;;;3.88;1.77;;;21.10;70.20;;;;;;5073554;28;20393;-79
2021/04/19 04:35:08;;;;;;;4.53;1.87;;;21.10;72.00;;;;;;5071234;28;20453;-79
2021/04/19 04:37:35;;;;;;;4.50;1.70;;;21.10;71.10;;;;;;5078617;28;20463;-79
2021/04/19 04:40:02;;;;;;;3.42;1.85;;;21.10;70.30;;;;;;5090947;28;20396;-79
2021/04/19 04:42:30;;;;;;;2.88;1.80;;;21.10;70.90;;;;;;5090847;28;20739;-79
2021/04/19 04:44:57;;;;;;;4.30;1.83;;;21.00;69.60;;;;;;5090725;28;20388;-79
2021/04/19 04:47:51;;;;;;;4.78;2.10;;;20.90;70.90;;;;;;5089718;28;20376;-78
2021/04/19 04:50:41;;;;;;;4.03;2.05;;;20.80;70.20;;;;;;5083377;28;20465;-78
2021/04/19 04:53:14;;;;;;;2.70;1.90;;;20.80;71.60;;;;;;5083019;28;20943;-78
2021/04/19 04:55:42;;;;;;;5.40;2.00;;;20.80;73.00;;;;;;5090465;28;20392;-78
2021/04/19 04:58:10;;;;;;;4.00;2.00;;;20.70;72.70;;;;;;5083909;28;20390;-79
2021/04/19 05:00:38;;;;;;;4.00;1.85;;;20.70;73.00;;;;;;5082942;28;20408;-79
2021/04/19 05:03:08;;;;;;;4.35;2.00;;;20.70;70.00;;;;;;5072370;28;20386;-79
2021/04/19 05:05:36;;;;;;;3.00;1.63;;;20.60;73.00;;;;;;5083315;28;20386;-78
2021/04/19 05:08:04;;;;;;;3.10;1.88;;;20.70;71.20;;;;;;5077110;28;20397;-77
2021/04/19 05:10:31;;;;;;;4.00;1.60;;;20.60;72.60;;;;;;5073581;28;20401;-77
2021/04/19 05:12:58;;;;;;;4.25;1.77;;;20.60;72.90;;;;;;5070299;28;20382;-78
2021/04/19 05:15:26;;;;;;;3.97;1.73;;;20.60;73.50;;;;;;5081061;28;20398;-77
2021/04/19 05:17:53;;;;;;;3.55;1.73;;;20.60;72.90;;;;;;5083642;28;20463;-78
2021/04/19 05:20:20;;;;;;;2.40;1.70;;;20.60;73.10;;;;;;5078266;28;20417;-77
2021/04/19 05:22:47;;;;;;;3.33;1.92;;;20.60;73.20;;;;;;5077046;28;20430;-78
2021/04/19 05:25:14;;;;;;;4.43;1.97;;;20.50;73.80;;;;;;5072264;28;20914;-78
2021/04/19 05:27:42;;;;;;;2.22;1.70;;;20.50;75.30;;;;;;5069793;28;20376;-77
2021/04/19 05:30:10;;;;;;;5.88;1.80;;;20.60;73.30;;;;;;5073077;28;20446;-77
2021/04/19 05:32:37;;;;;;;4.57;2.00;;;20.60;73.30;;;;;;5082062;28;20476;-77
2021/04/19 05:35:04;;;;;;;6.15;1.95;;;20.60;73.40;;;;;;5075508;28;20375;-77
2021/04/19 05:37:32;;;;;;;4.20;1.80;;;20.50;73.60;;;;;;5070200;28;20377;-77
2021/04/19 05:40:01;;;;;;;5.00;2.08;;;20.50;75.70;;;;;;5083055;28;20499;-77
2021/04/19 05:42:28;;;;;;;3.93;1.90;;;20.50;75.50;;;;;;5085459;28;20453;-77
2021/04/19 05:44:55;;;;;;;6.28;1.67;;;20.40;78.10;;;;;;5080935;28;20454;-77
2021/04/19 05:47:22;;;;;;;2.95;1.83;;;20.30;78.60;;;;;;5089207;28;20475;-77
2021/04/19 05:49:49;;;;;;;3.30;1.90;;;20.30;77.30;;;;;;5099507;28;20404;-77
2021/04/19 05:52:16;;;;;;;2.60;1.80;;;20.30;77.70;;;;;;5098730;28;20901;-78
2021/04/19 05:54:44;;;;;;;2.85;1.77;;;20.30;77.10;;;;;;5082606;28;20399;-78
2021/04/19 05:57:39;;;;;;;3.53;1.83;;;20.20;77.20;;;;;;5075415;28;20386;-77
2021/04/19 06:00:16;;;;;;;4.65;1.90;;;20.20;78.50;;;;;;5080271;28;20483;-78
2021/04/19 06:02:56;;;;;;;4.32;2.00;;;20.20;74.60;;;;;;5085790;28;20423;-78
2021/04/19 06:05:55;;;;;;;5.18;2.35;;;20.30;75.30;;;;;;5071720;28;20404;-77
2021/04/19 06:08:36;;;;;;;3.72;1.90;;;20.20;75.30;;;;;;5047735;28;20389;-77
2021/04/19 06:11:26;;;;;;;5.50;1.85;;;20.20;76.10;;;;;;5087922;28;20372;-78
2021/04/19 06:13:55;;;;;;;2.80;1.85;;;20.10;77.30;;;;;;5073153;28;20908;-77
2021/04/19 06:16:23;;;;;;;4.13;1.83;;;20.10;78.50;;;;;;5079991;28;20891;-77
2021/04/19 06:18:52;;;;;;;4.07;1.80;;;20.00;76.90;;;;;;5077684;28;20394;-77
2021/04/19 06:21:19;;;;;;;3.78;1.80;;;20.00;78.40;;;;;;5078822;28;20386;-78
2021/04/19 06:23:46;;;;;;;3.80;1.83;;;20.00;79.00;;;;;;5083466;28;20962;-77
2021/04/19 06:26:13;;;;;;;5.20;2.05;;;19.90;79.10;;;;;;5086900;28;20503;-77
2021/04/19 06:28:40;;;;;;;6.47;2.00;;;19.80;80.20;;;;;;5074603;28;20415;-78
2021/04/19 06:31:11;;;;;;;2.70;1.83;;;19.80;79.30;;;;;;5077385;28;20386;-78
2021/04/19 06:33:38;;;;;;;4.45;2.00;;;19.70;79.60;;;;;;5088425;28;20404;-76
2021/04/19 06:36:05;;;;;;;4.35;2.15;;;19.70;80.70;;;;;;5088398;28;20743;-78
2021/04/19 06:38:32;;;;;;;4.53;1.88;;;19.60;81.30;;;;;;5073988;28;20900;-77
2021/04/19 06:40:59;;;;;;;3.75;2.30;;;19.60;82.10;;;;;;5087888;28;20506;-77
2021/04/19 06:43:29;;;;;;;5.40;2.22;;;19.50;82.50;;;;;;5080289;28;20770;-78
2021/04/19 06:45:57;;;;;;;5.30;1.90;;;19.50;82.40;;;;;;5076797;28;20477;-77
2021/04/19 06:48:24;;;;;;;5.17;1.90;;;19.40;82.60;;;;;;5076869;28;20785;-77
2021/04/19 06:50:51;;;;;;;3.63;1.90;;;19.30;83.30;;;;;;5088332;28;20438;-79
2021/04/19 06:53:18;;;;;;;4.80;2.08;;;19.30;84.30;;;;;;5088811;28;20398;-78
2021/04/19 06:55:45;;;;;;;3.88;2.03;;;19.20;84.90;;;;;;5086859;28;20472;-78
2021/04/19 06:58:13;;;;;;;4.82;2.00;;;19.10;86.20;;;;;;5077510;28;20447;-78
2021/04/19 07:00:42;;;;;;;4.57;1.90;;;18.90;87.40;;;;;;5082235;28;20529;-79
2021/04/19 07:03:10;;;;;;;3.25;1.98;;;18.80;88.90;;;;;;5072134;28;20381;-78
2021/04/19 07:05:38;;;;;;;2.57;1.93;;;18.70;90.50;;;;;;5077907;28;20471;-79
2021/04/19 07:08:14;;;;;;;6.38;1.85;;;18.60;91.30;;;;;;5086168;28;20541;-78
2021/04/19 07:10:42;;;;;;;3.33;1.80;;;18.50;91.60;;;;;;5083605;28;20391;-78
2021/04/19 07:13:11;;;;;;;5.35;2.00;;;18.40;92.90;;;;;;5088300;28;20449;-79
2021/04/19 07:15:41;;;;;;;3.03;1.83;;;18.20;93.50;;;;;;5085611;28;20399;-78
2021/04/19 07:18:08;;;;;;;6.37;2.30;;;18.20;94.10;;;;;;5086353;28;20441;-79
2021/04/19 07:20:37;;;;;;;5.55;2.05;;;18.10;94.90;;;;;;5088433;28;20905;-79
2021/04/19 07:23:05;;;;;;;4.38;2.30;;;18.00;95.80;;;;;;5089243;28;20762;-79
2021/04/19 07:25:32;;;;;;;5.00;2.07;;;17.90;96.30;;;;;;5079840;28;20455;-79
2021/04/19 07:28:02;;;;;;;3.60;2.00;;;17.80;96.90;;;;;;5081536;28;20423;-78
2021/04/19 07:30:29;;;;;;;3.53;2.17;;;17.70;97.60;;;;;;5103034;28;20404;-78
2021/04/19 07:32:56;;;;;;;6.05;2.45;;;17.60;98.50;;;;;;5093813;28;20376;-78
2021/04/19 07:35:28;;;;;;;4.95;2.40;;;17.50;99.10;;;;;;5111152;28;20517;-79
2021/04/19 07:38:13;;;;;;;4.15;2.20;;;17.50;99.90;;;;;;5102760;28;20416;-79
2021/04/19 07:40:42;;;;;;;6.40;2.50;;;17.30;99.90;;;;;;5099371;28;20416;-79
2021/04/19 07:43:13;;;;;;;6.25;3.53;;;17.30;99.90;;;;;;5108429;28;20374;-78
2021/04/19 07:46:02;;;;;;;6.55;3.30;;;17.20;99.90;;;;;;5104528;28;20388;-79
2021/04/19 07:48:42;;;;;;;6.75;3.17;;;17.10;99.90;;;;;;5091740;28;20376;-81
2021/04/19 07:51:30;;;;;;;5.37;2.80;;;17.10;99.90;;;;;;5088109;28;20419;-79
2021/04/19 07:54:16;;;;;;;7.60;3.00;;;17.10;99.90;;;;;;5088192;28;20832;-79
2021/04/19 07:56:46;;;;;;;5.40;2.63;;;17.00;99.90;;;;;;5071967;28;20374;-80
2021/04/19 07:59:31;;;;;;;4.57;2.30;;;16.90;99.90;;;;;;5085649;28;20467;-79
2021/04/19 08:02:01;;;;;;;7.45;3.08;;;16.90;99.90;;;;;;5089482;28;20412;-79
2021/04/19 08:04:29;;;;;;;5.50;2.70;;;16.80;99.90;;;;;;5091468;28;20392;-79
2021/04/19 08:06:57;;;;;;;6.00;2.53;;;16.70;99.90;;;;;;5077971;28;20438;-79
2021/04/19 08:09:34;;;;;;;6.53;3.20;;;16.70;99.90;;;;;;5086377;28;20394;-79
2021/04/19 08:12:08;;;;;;;5.10;2.88;;;16.60;99.90;;;;;;5080680;28;20390;-79
2021/04/19 08:14:53;;;;;;;6.07;2.60;;;16.50;99.90;;;;;;5084184;28;20460;-80
2021/04/19 08:17:26;;;;;;;5.32;2.90;;;16.50;99.90;;;;;;5088951;28;20376;-80
2021/04/19 08:19:54;;;;;;;7.05;3.10;;;16.50;99.90;;;;;;5088798;28;20419;-80
2021/04/19 08:22:25;;;;;;;7.57;3.20;;;16.40;99.90;;;;;;5091589;28;20832;-79
2021/04/19 08:25:07;;;;;;;6.65;2.65;;;16.40;99.90;;;;;;5090310;28;20409;-80
2021/04/19 08:27:34;;;;;;;5.55;2.53;;;16.30;99.90;;;;;;5091425;28;20456;-79
2021/04/19 08:30:02;;;;;;;6.45;3.08;;;16.30;99.90;;;;;;5084478;28;20447;-79
2021/04/19 08:32:31;;;;;;;8.82;3.88;;;16.30;99.90;;;;;;5090257;28;20895;-78
2021/04/19 08:34:59;;;;;;;5.25;3.13;;;16.20;99.90;;;;;;5091334;28;20381;-78
2021/04/19 08:37:30;;;;;;;6.17;3.30;;;16.20;99.90;;;;;;5091209;28;20391;-79
2021/04/19 08:39:59;;;;;;;4.90;2.83;;;16.10;99.90;;;;;;5089645;28;20912;-79
2021/04/19 08:42:27;;;;;;;6.20;3.13;;;16.20;99.90;;;;;;5095558;28;20794;-79
2021/04/19 08:45:00;;;;;;;8.35;3.65;;;16.20;99.90;;;;;;5104678;28;20474;-79
2021/04/19 08:47:27;;;;;;;5.03;3.10;;;16.10;99.90;;;;;;5088702;28;20459;-79
2021/04/19 08:50:00;;;;;;;9.25;3.15;;;16.10;99.90;;;;;;5080933;28;20497;-79
2021/04/19 08:52:28;;;;;;;7.53;3.50;;;16.10;99.90;;;;;;5087607;28;20402;-80
2021/04/19 08:54:56;;;;;;;6.83;3.10;;;16.00;99.90;;;;;;5090517;28;20953;-79
2021/04/19 08:57:24;;;;;;;7.17;2.97;;;16.00;99.90;;;;;;5090879;28;20368;-80
2021/04/19 08:59:54;;;;;;;9.10;3.58;;;16.00;99.90;;;;;;5090396;28;20416;-79
2021/04/19 09:02:23;;;;;;;8.23;3.63;;;16.00;99.90;;;;;;5075844;28;20462;-79
2021/04/19 09:05:07;;;;;;;7.70;3.38;;;15.90;99.90;;;;;;5079017;28;20908;-80
2021/04/19 09:07:38;;;;;;;8.07;3.42;;;15.90;99.90;;;;;;5085792;28;20455;-79
2021/04/19 09:10:16;;;;;;;7.45;3.60;;;16.00;99.90;;;;;;5089795;28;20963;-79
2021/04/19 09:12:43;;;;;;;8.90;3.80;;;15.90;99.90;;;;;;5080802;28;20930;-79
2021/04/19 09:15:29;;;;;;;5.53;3.38;;;15.90;99.90;;;;;;5089400;28;20456;-82
2021/04/19 09:18:04;;;;;;;6.72;3.33;;;15.90;99.90;;;;;;5090209;28;20391;-80
2021/04/19 09:20:45;;;;;;;10.50;3.50;;;15.80;99.90;;;;;;5086404;28;20408;-81
2021/04/19 09:23:23;;;;;;;7.05;3.05;;;15.90;99.90;;;;;;5089354;28;20894;-81
2021/04/19 09:25:51;;;;;;;8.07;3.80;;;15.90;99.90;;;;;;5079982;28;20401;-81
2021/04/19 09:28:42;;;;;;;6.85;3.55;;;15.90;99.90;;;;;;5085853;28;20380;-81
2021/04/19 09:31:11;;;;;;;8.75;3.70;;;15.90;99.90;;;;;;5068893;28;20527;-81
2021/04/19 09:33:38;;;;;;;8.10;3.28;;;15.90;99.90;;;;;;5079203;28;20515;-81
2021/04/19 09:36:06;;;;;;;6.30;3.53;;;15.90;99.90;;;;;;5087827;28;20461;-81
2021/04/19 09:38:51;;;;;;;6.87;3.40;;;15.80;99.90;;;;;;5097379;28;20495;-81
2021/04/19 09:41:20;;;;;;;4.72;3.22;;;15.80;99.90;;;;;;5091072;28;20396;-81
2021/04/19 09:43:58;;;;;;;6.90;3.10;;;15.80;99.90;;;;;;5088540;28;20475;-81
2021/04/19 09:46:29;;;;;;;6.10;3.65;;;15.90;99.90;;;;;;5087477;28;20469;-80
2021/04/19 09:49:02;;;;;;;8.43;3.45;;;15.90;99.90;;;;;;5089219;28;20922;-81
2021/04/19 09:51:36;;;;;;;6.57;3.07;;;15.80;99.90;;;;;;5087065;28;20517;-81
2021/04/19 09:54:11;;;;;;;7.00;3.53;;;15.80;99.90;;;;;;5088775;28;20867;-81
2021/04/19 09:56:40;;;;;;;9.23;3.60;;;15.80;99.90;;;;;;5082532;28;20890;-81
2021/04/19 09:59:10;;;;;;;7.10;3.40;;;15.80;99.90;;;;;;5089757;28;20384;-81
2021/04/19 10:01:38;;;;;;;9.83;3.60;;;15.80;99.90;;;;;;5082064;28;20408;-80
2021/04/19 10:04:05;;;;;;;7.05;3.55;;;15.70;99.90;;;;;;5066857;28;20740;-80
2021/04/19 10:06:49;;;;;;;9.70;3.80;;;15.70;99.90;;;;;;5080469;28;21184;-80
2021/04/19 10:09:29;;;;;;;9.10;3.33;;;15.70;99.90;;;;;;5085491;28;20882;-80
2021/04/19 10:12:01;;;;;;;8.85;4.18;;;15.70;99.90;;;;;;5080953;28;20388;-80
2021/04/19 10:14:37;;;;;;;8.53;3.70;;;15.70;99.90;;;;;;5085781;28;20872;-80
2021/04/19 10:17:18;;;;;;;9.25;3.67;;;15.70;99.90;;;;;;5081315;28;20471;-81
2021/04/19 10:19:46;;;;;;;8.10;3.60;;;15.70;99.90;;;;;;5083398;28;20930;-80
2021/04/19 10:22:14;;;;;;;7.00;3.95;;;15.60;99.90;;;;;;5086388;28;20949;-80
2021/04/19 10:24:49;;;;;;;11.55;4.13;;;15.60;99.90;;;;;;5086280;28;20387;-80
2021/04/19 10:27:27;;;;;;;8.13;3.97;;;15.60;99.90;;;;;;5084529;28;20380;-80
2021/04/19 10:29:56;;;;;;;8.32;4.35;;;15.50;99.90;;;;;;5080838;28;20396;-80
2021/04/19 10:32:30;;;;;;;8.23;4.18;;;15.50;99.90;;;;;;5082008;28;20790;-80
2021/04/19 10:34:57;;;;;;;10.43;4.00;;;15.60;99.90;;;;;;5080763;28;20400;-79
2021/04/19 10:37:24;;;;;;;8.82;4.30;;;15.50;99.90;;;;;;5067111;28;20388;-80
2021/04/19 10:39:51;;;;;;;9.68;4.25;;;15.40;99.90;;;;;;5087079;28;20438;-79
2021/04/19 10:42:31;;;;;;;6.75;4.22;;;15.50;99.90;;;;;;5088406;28;20364;-80
2021/04/19 10:45:09;;;;;;;7.60;4.10;;;15.40;99.90;;;;;;5083937;28;20392;-80
2021/04/19 10:47:36;;;;;;;7.90;4.40;;;15.40;99.90;;;;;;5087333;28;20380;-80
2021/04/19 10:50:03;;;;;;;8.10;3.80;;;15.40;99.90;;;;;;5087237;28;20400;-80
2021/04/19 10:52:30;;;;;;;7.75;4.20;;;15.50;99.90;;;;;;5089017;28;20383;-80
2021/04/19 10:55:03;;;;;;;6.28;3.97;;;15.40;99.90;;;;;;5079087;28;20418;-79
2021/04/19 10:57:31;;;;;;;7.85;3.97;;;15.40;99.90;;;;;;5073582;28;20392;-80
2021/04/19 10:59:59;;;;;;;9.25;4.35;;;15.40;99.90;;;;;;5070180;28;21035;-80
2021/04/19 11:02:31;;;;;;;9.60;4.22;;;15.30;99.90;;;;;;5069019;28;20447;-81
2021/04/19 11:04:59;;;;;;;7.47;4.10;;;15.30;99.90;;;;;;5090797;28;20861;-80
2021/04/19 11:07:35;;;;;;;9.75;3.92;;;15.30;99.90;;;;;;5076563;28;20398;-80
2021/04/19 11:10:17;;;;;;;9.35;4.07;;;15.20;99.90;;;;;;5083644;28;20383;-78
2021/04/19 11:13:06;;;;;;;6.07;3.47;;;15.10;99.90;;;;;;5087828;28;20467;-78
2021/04/19 11:15:36;;;;;;;9.50;4.25;;;15.10;99.90;;;;;;5077539;28;20410;-80
2021/04/19 11:18:24;;;;;;;6.35;4.18;;;15.00;99.90;;;;;;5098322;28;20769;-78
2021/04/19 11:20:53;;;;;;;7.13;3.88;;;15.00;99.90;;;;;;5086853;27;20436;-78
2021/04/19 11:23:21;;;;;;;8.07;4.40;;;15.10;99.90;;;;;;5080141;28;20423;-79
2021/04/19 11:25:49;;;;;;;7.40;4.10;;;15.10;99.90;;;;;;5074989;28;20408;-80
2021/04/19 11:28:17;;;;;;;7.23;4.50;;;15.10;99.90;;;;;;5078418;28;20904;-79
2021/04/19 11:30:45;;;;;;;9.52;4.78;;;15.00;99.90;;;;;;5082153;28;20475;-80
2021/04/19 11:33:41;;;;;;;13.15;4.78;;;15.00;99.90;;;;;;5105411;27;20527;-79
2021/04/19 11:36:09;;;;;;;8.23;4.85;;;14.90;99.90;;;;;;5081001;28;20418;-79
2021/04/19 11:38:37;;;;;;;8.80;4.28;;;14.80;99.90;;;;;;5077023;28;20409;-79
2021/04/19 11:41:10;;;;;;;6.78;4.35;;;14.80;99.90;;;;;;5079304;28;20972;-78
2021/04/19 11:43:46;;;;;;;9.53;4.60;;;14.80;99.90;;;;;;5077350;28;20453;-80
2021/04/19 11:46:15;;;;;;;6.35;4.90;;;14.70;99.90;;;;;;5077417;28;20484;-80
2021/04/19 11:48:45;;;;;;;7.72;4.38;;;14.60;99.90;;;;;;5083048;28;20408;-79
2021/04/19 11:51:15;;;;;;;7.50;4.95;;;14.60;99.90;;;;;;5089030;28;20973;-79
2021/04/19 11:53:44;;;;;;;9.07;5.10;;;14.50;99.90;;;;;;5077667;28;20402;-79
2021/04/19 11:56:12;;;;;;;10.70;4.90;;;14.40;99.90;;;;;;5077172;28;20418;-80
2021/04/19 11:58:44;;;;;;;6.30;4.78;;;14.30;99.90;;;;;;5092315;28;20400;-79
2021/04/19 12:01:13;;;;;;;9.60;5.10;;;14.20;99.90;;;;;;5089991;28;20479;-79
2021/04/19 12:03:42;;;;;;;7.53;4.85;;;14.10;99.90;;;;;;5082301;28;20411;-79
2021/04/19 12:06:10;;;;;;;9.50;4.93;;;14.00;99.90;;;;;;5087342;28;20411;-79
2021/04/19 12:08:45;;;;;;;6.68;4.97;;;13.90;99.90;;;;;;5094972;28;20823;-79
2021/04/19 12:11:22;;;;;;;8.98;5.15;;;13.90;99.90;;;;;;5093340;28;20432;-84
2021/04/19 12:13:50;;;;;;;11.70;5.22;;;13.80;99.90;;;;;;5089566;27;20863;-79
2021/04/19 12:16:20;;;;;;;78.90;17.58;;;13.70;99.90;;;;;;5089063;28;20421;-80
2021/04/19 12:18:47;;;;;;;79.32;21.30;;;13.60;99.90;;;;;;5088516;28;20376;-80
2021/04/19 12:21:13;;;;;;;88.65;22.45;;;13.50;99.90;;;;;;5091494;28;20407;-79
2021/04/19 12:23:40;;;;;;;88.50;18.67;;;13.50;99.90;;;;;;5089136;28;20377;-80
2021/04/19 12:26:07;;;;;;;75.47;17.10;;;13.40;99.90;;;;;;5077465;28;20751;-80
2021/04/19 12:28:34;;;;;;;80.85;19.73;;;13.40;99.90;;;;;;5090906;28;20451;-79
2021/04/19 12:31:01;;;;;;;78.03;20.03;;;13.30;99.90;;;;;;5090726;28;20484;-79
2021/04/19 12:33:28;;;;;;;56.00;14.83;;;13.30;99.90;;;;;;5091156;28;20368;-79
2021/04/19 12:35:55;;;;;;;35.25;10.52;;;13.20;99.90;;;;;;5086307;28;20909;-78
2021/04/19 12:38:23;;;;;;;15.38;7.10;;;13.20;99.90;;;;;;5090982;28;20911;-78
2021/04/19 12:40:50;;;;;;;15.20;6.10;;;13.30;99.90;;;;;;5090970;28;20412;-78
2021/04/19 12:43:17;;;;;;;14.40;6.40;;;13.30;99.90;;;;;;5086117;28;20413;-78
2021/04/19 12:45:44;;;;;;;9.03;5.00;;;13.40;99.90;;;;;;5080837;28;20721;-79
2021/04/19 12:48:12;;;;;;;6.82;4.90;;;13.40;99.90;;;;;;5080080;28;20389;-79
2021/04/19 12:50:41;;;;;;;6.25;4.47;;;13.40;99.90;;;;;;5085471;28;21070;-79
2021/04/19 12:53:09;;;;;;;8.60;5.03;;;13.30;99.90;;;;;;5084203;28;20407;-79
2021/04/19 12:55:39;;;;;;;7.78;5.13;;;13.30;99.90;;;;;;5072490;28;20460;-79
2021/04/19 12:58:06;;;;;;;14.98;5.97;;;13.30;99.90;;;;;;5089333;28;20380;-80
2021/04/19 13:00:33;;;;;;;10.63;4.93;;;13.20;99.90;;;;;;5086204;28;20412;-78
2021/04/19 13:03:00;;;;;;;7.95;4.60;;;13.20;99.90;;;;;;5082457;28;20516;-78
2021/04/19 13:05:27;;;;;;;6.78;4.15;;;13.20;99.90;;;;;;5076612;28;20457;-78